Jade — 9HVS8 — position and weather

sailwx.info

Track history (hours):
 
Tides and Currents Weather Stations Pressure Air Temp Water Temp Dewpoint Dewpoint Depression Visibility Wind Speed Wind Dir Waves Ship Positions

Jade

Last reported at 2015-Mar-31 05:32 UTC. Time now 2015-Mar-31 11:22 UTC.
Position N 40°44' E 028°44'.

Length 176 m; draft 8 m.

Type: Tanker. MMSI: 256491000.

Date/timePositionNaut miles runAvg speedWind from/ knotsBaromVisibWave heightAir tempDewpointWater temp
2015-Mar-31 05:32N 40°44' E 028°44'1 0.2
2015-Mar-31 03:18N 40°44' E 028°44'0 0.4
2015-Mar-31 02:30N 40°45' E 028°44'1 0.6
2015-Mar-31 01:12N 40°45' E 028°44'4 5.3
2015-Mar-31 00:22N 40°48' E 028°40'1 0.2
2015-Mar-30 20:31N 40°48' E 028°40'3 0.7
2015-Mar-30 16:13N 40°47' E 028°44'0 0.7
2015-Mar-30 15:31N 40°47' E 028°45'1 0.6
2015-Mar-30 14:31N 40°47' E 028°45'1 0.7
2015-Mar-30 13:30N 40°47' E 028°46'1 0.6
2015-Mar-30 12:18N 40°47' E 028°47'4 2.9
2015-Mar-30 11:05N 40°48' E 028°51'1 1.2
2015-Mar-30 10:18N 40°48' E 028°52'1 0.8
2015-Mar-30 09:29N 40°48' E 028°51'6 6.0
2015-Mar-30 08:32N 40°43' E 028°47'1 0.3
2015-Mar-30 06:32N 40°43' E 028°47'1 0.4
2015-Mar-30 03:16N 40°43' E 028°45'3 0.9
2015-Mar-30 00:19N 40°45' E 028°43'1 0.9
2015-Mar-29 23:28N 40°46' E 028°43'2 0.4
2015-Mar-29 18:22N 40°48' E 028°43'6 7.7
2015-Mar-29 17:32N 40°48' E 028°51'1 1.0
2015-Mar-29 16:07N 40°48' E 028°53'1 0.8
2015-Mar-29 15:13N 40°49' E 028°53'0 0.3
2015-Mar-29 14:31N 40°49' E 028°54'1 0.9
2015-Mar-29 13:31N 40°50' E 028°55'0 0.2
2015-Mar-29 11:32N 40°50' E 028°54'1211.9
2015-Mar-29 10:33N 40°49' E 028°39'256 6.0
2015-Mar-27 16:13N 36°60' E 026°13'  
Track history (hours):
 
Tides and Currents Weather Stations Pressure Air Temp Water Temp Dewpoint Dewpoint Depression Visibility Wind Speed Wind Dir Waves Ship Positions

Jade

Last reported at 2015-Mar-31 05:32 UTC. Time now 2015-Mar-31 11:22 UTC.
Position N 40°44' E 028°44'.

Length 176 m; draft 8 m.

Type: Tanker. MMSI: 256491000.

Date/timePositionNaut miles runAvg speedWind from/ knotsBaromVisibWave heightAir tempDewpointWater temp
2015-Mar-31 05:32N 40°44' E 028°44'1 0.2
2015-Mar-31 03:18N 40°44' E 028°44'0 0.4
2015-Mar-31 02:30N 40°45' E 028°44'1 0.6
2015-Mar-31 01:12N 40°45' E 028°44'4 5.3
2015-Mar-31 00:22N 40°48' E 028°40'1 0.2
2015-Mar-30 20:31N 40°48' E 028°40'3 0.7
2015-Mar-30 16:13N 40°47' E 028°44'0 0.7
2015-Mar-30 15:31N 40°47' E 028°45'1 0.6
2015-Mar-30 14:31N 40°47' E 028°45'1 0.7
2015-Mar-30 13:30N 40°47' E 028°46'1 0.6
2015-Mar-30 12:18N 40°47' E 028°47'4 2.9
2015-Mar-30 11:05N 40°48' E 028°51'1 1.2
2015-Mar-30 10:18N 40°48' E 028°52'1 0.8
2015-Mar-30 09:29N 40°48' E 028°51'6 6.0
2015-Mar-30 08:32N 40°43' E 028°47'1 0.3
2015-Mar-30 06:32N 40°43' E 028°47'1 0.4
2015-Mar-30 03:16N 40°43' E 028°45'3 0.9
2015-Mar-30 00:19N 40°45' E 028°43'1 0.9
2015-Mar-29 23:28N 40°46' E 028°43'2 0.4
2015-Mar-29 18:22N 40°48' E 028°43'6 7.7
2015-Mar-29 17:32N 40°48' E 028°51'1 1.0
2015-Mar-29 16:07N 40°48' E 028°53'1 0.8
2015-Mar-29 15:13N 40°49' E 028°53'0 0.3
2015-Mar-29 14:31N 40°49' E 028°54'1 0.9
2015-Mar-29 13:31N 40°50' E 028°55'0 0.2
2015-Mar-29 11:32N 40°50' E 028°54'1211.9
2015-Mar-29 10:33N 40°49' E 028°39'256 6.0
2015-Mar-27 16:13N 36°60' E 026°13'  

Dump ship's entire track history